sensor_id;sensor_type;location;lat;lon;timestamp;P1;durP1;ratioP1;P2;durP2;ratioP2
80625;SDS011;69982;51.758;5.784;2023-11-19T00:01:18;5.00;;;2.90;;
80625;SDS011;69982;51.758;5.784;2023-11-19T00:03:48;6.90;;;2.80;;
80625;SDS011;69982;51.758;5.784;2023-11-19T00:06:22;7.90;;;3.10;;
80625;SDS011;69982;51.758;5.784;2023-11-19T00:08:49;7.90;;;3.10;;
80625;SDS011;69982;51.758;5.784;2023-11-19T00:11:59;7.40;;;3.20;;
80625;SDS011;69982;51.758;5.784;2023-11-19T00:14:54;10.00;;;3.40;;
80625;SDS011;69982;51.758;5.784;2023-11-19T00:17:22;6.10;;;2.90;;
80625;SDS011;69982;51.758;5.784;2023-11-19T00:19:56;7.60;;;3.20;;
80625;SDS011;69982;51.758;5.784;2023-11-19T00:22:38;6.30;;;2.90;;
80625;SDS011;69982;51.758;5.784;2023-11-19T00:25:29;6.10;;;3.10;;
80625;SDS011;69982;51.758;5.784;2023-11-19T00:27:55;7.70;;;3.30;;
80625;SDS011;69982;51.758;5.784;2023-11-19T00:30:43;6.40;;;2.80;;
80625;SDS011;69982;51.758;5.784;2023-11-19T00:33:11;6.30;;;3.20;;
80625;SDS011;69982;51.758;5.784;2023-11-19T00:35:39;7.30;;;3.40;;
80625;SDS011;69982;51.758;5.784;2023-11-19T00:38:07;8.00;;;3.40;;
80625;SDS011;69982;51.758;5.784;2023-11-19T00:40:35;6.80;;;3.20;;
80625;SDS011;69982;51.758;5.784;2023-11-19T00:45:46;8.90;;;3.50;;
80625;SDS011;69982;51.758;5.784;2023-11-19T00:48:18;6.70;;;3.30;;
80625;SDS011;69982;51.758;5.784;2023-11-19T00:50:46;8.90;;;3.10;;
80625;SDS011;69982;51.758;5.784;2023-11-19T00:53:16;10.00;;;3.70;;
80625;SDS011;69982;51.758;5.784;2023-11-19T00:55:44;13.20;;;3.20;;
80625;SDS011;69982;51.758;5.784;2023-11-19T00:58:16;9.30;;;3.50;;
80625;SDS011;69982;51.758;5.784;2023-11-19T01:01:05;9.00;;;3.10;;
80625;SDS011;69982;51.758;5.784;2023-11-19T01:03:32;8.20;;;3.40;;
80625;SDS011;69982;51.758;5.784;2023-11-19T01:06:29;16.10;;;3.20;;
80625;SDS011;69982;51.758;5.784;2023-11-19T01:09:01;9.70;;;2.60;;
80625;SDS011;69982;51.758;5.784;2023-11-19T01:11:30;8.00;;;2.60;;
80625;SDS011;69982;51.758;5.784;2023-11-19T01:14:11;11.70;;;2.70;;
80625;SDS011;69982;51.758;5.784;2023-11-19T01:16:40;7.70;;;2.20;;
80625;SDS011;69982;51.758;5.784;2023-11-19T01:19:31;11.30;;;2.90;;
80625;SDS011;69982;51.758;5.784;2023-11-19T01:22:06;11.90;;;3.60;;
80625;SDS011;69982;51.758;5.784;2023-11-19T01:24:37;10.90;;;2.80;;
80625;SDS011;69982;51.758;5.784;2023-11-19T01:27:06;12.50;;;2.80;;
80625;SDS011;69982;51.758;5.784;2023-11-19T01:29:45;16.60;;;2.90;;
80625;SDS011;69982;51.758;5.784;2023-11-19T01:32:32;13.10;;;2.60;;
80625;SDS011;69982;51.758;5.784;2023-11-19T01:35:00;9.70;;;2.30;;
80625;SDS011;69982;51.758;5.784;2023-11-19T01:37:45;9.80;;;2.70;;
80625;SDS011;69982;51.758;5.784;2023-11-19T01:40:14;9.20;;;2.60;;
80625;SDS011;69982;51.758;5.784;2023-11-19T01:42:49;8.20;;;2.30;;
80625;SDS011;69982;51.758;5.784;2023-11-19T01:45:31;13.80;;;2.50;;
80625;SDS011;69982;51.758;5.784;2023-11-19T01:48:12;12.30;;;3.00;;
80625;SDS011;69982;51.758;5.784;2023-11-19T01:50:50;11.00;;;2.90;;
80625;SDS011;69982;51.758;5.784;2023-11-19T01:53:46;11.20;;;2.20;;
80625;SDS011;69982;51.758;5.784;2023-11-19T01:56:14;12.80;;;3.00;;
80625;SDS011;69982;51.758;5.784;2023-11-19T01:58:59;13.60;;;2.50;;
80625;SDS011;69982;51.758;5.784;2023-11-19T02:01:43;7.20;;;2.20;;
80625;SDS011;69982;51.758;5.784;2023-11-19T02:04:29;14.30;;;5.00;;
80625;SDS011;69982;51.758;5.784;2023-11-19T02:06:58;9.90;;;2.30;;
80625;SDS011;69982;51.758;5.784;2023-11-19T02:09:26;9.60;;;2.20;;
80625;SDS011;69982;51.758;5.784;2023-11-19T02:11:56;10.90;;;1.80;;
80625;SDS011;69982;51.758;5.784;2023-11-19T02:14:28;9.30;;;1.90;;
80625;SDS011;69982;51.758;5.784;2023-11-19T02:17:04;10.50;;;2.30;;
80625;SDS011;69982;51.758;5.784;2023-11-19T02:19:48;12.90;;;2.10;;
80625;SDS011;69982;51.758;5.784;2023-11-19T02:22:17;13.60;;;3.10;;
80625;SDS011;69982;51.758;5.784;2023-11-19T02:24:49;11.00;;;2.80;;
80625;SDS011;69982;51.758;5.784;2023-11-19T02:27:26;13.20;;;2.10;;
80625;SDS011;69982;51.758;5.784;2023-11-19T02:30:03;13.30;;;1.90;;
80625;SDS011;69982;51.758;5.784;2023-11-19T02:32:41;9.50;;;1.40;;
80625;SDS011;69982;51.758;5.784;2023-11-19T02:35:11;13.80;;;2.00;;
80625;SDS011;69982;51.758;5.784;2023-11-19T02:37:39;13.60;;;2.00;;
80625;SDS011;69982;51.758;5.784;2023-11-19T02:40:11;11.70;;;1.80;;
80625;SDS011;69982;51.758;5.784;2023-11-19T02:42:56;14.00;;;2.20;;
80625;SDS011;69982;51.758;5.784;2023-11-19T02:45:44;12.90;;;1.80;;
80625;SDS011;69982;51.758;5.784;2023-11-19T02:48:21;14.40;;;2.00;;
80625;SDS011;69982;51.758;5.784;2023-11-19T02:50:57;13.30;;;2.20;;
80625;SDS011;69982;51.758;5.784;2023-11-19T02:53:45;11.60;;;1.90;;
80625;SDS011;69982;51.758;5.784;2023-11-19T02:56:20;20.00;;;3.10;;
80625;SDS011;69982;51.758;5.784;2023-11-19T02:59:14;19.40;;;2.20;;
80625;SDS011;69982;51.758;5.784;2023-11-19T03:02:00;15.70;;;2.60;;
80625;SDS011;69982;51.758;5.784;2023-11-19T03:04:39;10.90;;;1.50;;
80625;SDS011;69982;51.758;5.784;2023-11-19T03:07:22;12.70;;;2.10;;
80625;SDS011;69982;51.758;5.784;2023-11-19T03:10:12;13.10;;;2.10;;
80625;SDS011;69982;51.758;5.784;2023-11-19T03:12:44;20.70;;;3.10;;
80625;SDS011;69982;51.758;5.784;2023-11-19T03:15:14;14.10;;;2.20;;
80625;SDS011;69982;51.758;5.784;2023-11-19T03:17:48;16.40;;;2.00;;
80625;SDS011;69982;51.758;5.784;2023-11-19T03:20:21;20.10;;;2.60;;
80625;SDS011;69982;51.758;5.784;2023-11-19T03:22:54;30.50;;;3.00;;
80625;SDS011;69982;51.758;5.784;2023-11-19T03:25:45;15.70;;;2.50;;
80625;SDS011;69982;51.758;5.784;2023-11-19T03:28:29;17.20;;;2.70;;
80625;SDS011;69982;51.758;5.784;2023-11-19T03:30:59;19.70;;;2.50;;
80625;SDS011;69982;51.758;5.784;2023-11-19T03:33:38;18.10;;;2.40;;
80625;SDS011;69982;51.758;5.784;2023-11-19T03:36:31;14.30;;;2.30;;
80625;SDS011;69982;51.758;5.784;2023-11-19T03:39:01;17.90;;;2.20;;
80625;SDS011;69982;51.758;5.784;2023-11-19T03:41:34;11.80;;;1.90;;
80625;SDS011;69982;51.758;5.784;2023-11-19T03:44:07;15.50;;;2.70;;
80625;SDS011;69982;51.758;5.784;2023-11-19T03:46:55;21.60;;;2.50;;
80625;SDS011;69982;51.758;5.784;2023-11-19T03:49:31;20.80;;;2.60;;
80625;SDS011;69982;51.758;5.784;2023-11-19T03:52:02;18.30;;;3.10;;
80625;SDS011;69982;51.758;5.784;2023-11-19T03:54:52;19.20;;;2.60;;
80625;SDS011;69982;51.758;5.784;2023-11-19T03:57:43;13.50;;;2.50;;
80625;SDS011;69982;51.758;5.784;2023-11-19T04:00:18;20.70;;;3.00;;
80625;SDS011;69982;51.758;5.784;2023-11-19T04:02:58;16.90;;;2.00;;
80625;SDS011;69982;51.758;5.784;2023-11-19T04:05:28;24.80;;;2.70;;
80625;SDS011;69982;51.758;5.784;2023-11-19T04:08:00;16.90;;;3.20;;
80625;SDS011;69982;51.758;5.784;2023-11-19T04:10:40;19.40;;;3.10;;
80625;SDS011;69982;51.758;5.784;2023-11-19T04:13:24;20.20;;;2.70;;
80625;SDS011;69982;51.758;5.784;2023-11-19T04:15:52;21.90;;;2.80;;
80625;SDS011;69982;51.758;5.784;2023-11-19T04:18:40;27.10;;;3.00;;
80625;SDS011;69982;51.758;5.784;2023-11-19T04:21:14;24.20;;;2.40;;
80625;SDS011;69982;51.758;5.784;2023-11-19T04:26:14;25.20;;;3.80;;
80625;SDS011;69982;51.758;5.784;2023-11-19T04:28:43;13.80;;;1.80;;
80625;SDS011;69982;51.758;5.784;2023-11-19T04:31:11;21.00;;;2.80;;
80625;SDS011;69982;51.758;5.784;2023-11-19T04:33:42;18.90;;;2.60;;
80625;SDS011;69982;51.758;5.784;2023-11-19T04:36:11;20.00;;;2.80;;
80625;SDS011;69982;51.758;5.784;2023-11-19T04:38:45;22.30;;;2.90;;
80625;SDS011;69982;51.758;5.784;2023-11-19T04:41:12;22.70;;;2.80;;
80625;SDS011;69982;51.758;5.784;2023-11-19T04:43:55;27.70;;;3.30;;
80625;SDS011;69982;51.758;5.784;2023-11-19T04:46:23;22.30;;;2.70;;
80625;SDS011;69982;51.758;5.784;2023-11-19T04:49:07;19.20;;;2.90;;
80625;SDS011;69982;51.758;5.784;2023-11-19T04:51:49;19.90;;;3.30;;
80625;SDS011;69982;51.758;5.784;2023-11-19T04:54:41;15.90;;;2.30;;
80625;SDS011;69982;51.758;5.784;2023-11-19T04:57:10;19.70;;;2.50;;
80625;SDS011;69982;51.758;5.784;2023-11-19T04:59:41;26.50;;;3.30;;
80625;SDS011;69982;51.758;5.784;2023-11-19T05:02:12;19.20;;;2.80;;
80625;SDS011;69982;51.758;5.784;2023-11-19T05:05:16;22.90;;;3.20;;
80625;SDS011;69982;51.758;5.784;2023-11-19T05:07:49;26.50;;;3.60;;
80625;SDS011;69982;51.758;5.784;2023-11-19T05:10:18;24.10;;;3.40;;
80625;SDS011;69982;51.758;5.784;2023-11-19T05:12:47;18.30;;;3.20;;
80625;SDS011;69982;51.758;5.784;2023-11-19T05:15:17;21.10;;;3.10;;
80625;SDS011;69982;51.758;5.784;2023-11-19T05:17:46;27.10;;;3.10;;
80625;SDS011;69982;51.758;5.784;2023-11-19T05:22:43;25.00;;;2.90;;
80625;SDS011;69982;51.758;5.784;2023-11-19T05:25:09;18.90;;;2.60;;
80625;SDS011;69982;51.758;5.784;2023-11-19T05:27:54;16.20;;;2.00;;
80625;SDS011;69982;51.758;5.784;2023-11-19T05:30:30;24.10;;;3.70;;
80625;SDS011;69982;51.758;5.784;2023-11-19T05:33:24;24.80;;;3.80;;
80625;SDS011;69982;51.758;5.784;2023-11-19T05:36:05;25.70;;;3.40;;
80625;SDS011;69982;51.758;5.784;2023-11-19T05:38:44;16.30;;;2.50;;
80625;SDS011;69982;51.758;5.784;2023-11-19T05:41:26;26.50;;;3.60;;
80625;SDS011;69982;51.758;5.784;2023-11-19T05:44:15;24.00;;;3.60;;
80625;SDS011;69982;51.758;5.784;2023-11-19T05:46:53;27.60;;;3.10;;
80625;SDS011;69982;51.758;5.784;2023-11-19T05:49:25;26.60;;;5.20;;
80625;SDS011;69982;51.758;5.784;2023-11-19T05:52:13;30.20;;;3.60;;
80625;SDS011;69982;51.758;5.784;2023-11-19T05:54:43;23.80;;;2.80;;
80625;SDS011;69982;51.758;5.784;2023-11-19T05:57:18;23.40;;;3.00;;
80625;SDS011;69982;51.758;5.784;2023-11-19T05:59:53;28.90;;;3.30;;
80625;SDS011;69982;51.758;5.784;2023-11-19T06:02:46;24.10;;;3.00;;
80625;SDS011;69982;51.758;5.784;2023-11-19T06:05:14;24.10;;;2.60;;
80625;SDS011;69982;51.758;5.784;2023-11-19T06:10:28;27.00;;;3.00;;
80625;SDS011;69982;51.758;5.784;2023-11-19T06:13:12;33.50;;;4.50;;
80625;SDS011;69982;51.758;5.784;2023-11-19T06:16:17;26.40;;;3.60;;
80625;SDS011;69982;51.758;5.784;2023-11-19T06:18:46;21.80;;;3.80;;
80625;SDS011;69982;51.758;5.784;2023-11-19T06:21:15;22.20;;;3.00;;
80625;SDS011;69982;51.758;5.784;2023-11-19T06:23:51;18.70;;;3.10;;
80625;SDS011;69982;51.758;5.784;2023-11-19T06:26:41;24.90;;;3.30;;
80625;SDS011;69982;51.758;5.784;2023-11-19T06:29:15;18.00;;;2.30;;
80625;SDS011;69982;51.758;5.784;2023-11-19T06:31:45;23.80;;;3.10;;
80625;SDS011;69982;51.758;5.784;2023-11-19T06:34:36;22.90;;;2.40;;
80625;SDS011;69982;51.758;5.784;2023-11-19T06:37:15;19.10;;;3.10;;
80625;SDS011;69982;51.758;5.784;2023-11-19T06:40:05;22.80;;;3.20;;
80625;SDS011;69982;51.758;5.784;2023-11-19T06:42:47;19.90;;;2.60;;
80625;SDS011;69982;51.758;5.784;2023-11-19T06:45:18;23.50;;;3.20;;
80625;SDS011;69982;51.758;5.784;2023-11-19T06:47:46;23.40;;;3.00;;
80625;SDS011;69982;51.758;5.784;2023-11-19T06:50:15;20.00;;;2.40;;
80625;SDS011;69982;51.758;5.784;2023-11-19T06:53:06;18.20;;;2.50;;
80625;SDS011;69982;51.758;5.784;2023-11-19T06:55:36;24.70;;;3.50;;
80625;SDS011;69982;51.758;5.784;2023-11-19T06:58:18;25.40;;;3.90;;
80625;SDS011;69982;51.758;5.784;2023-11-19T07:01:06;28.00;;;3.30;;
80625;SDS011;69982;51.758;5.784;2023-11-19T07:03:37;28.40;;;2.90;;
80625;SDS011;69982;51.758;5.784;2023-11-19T07:06:20;19.00;;;2.80;;
80625;SDS011;69982;51.758;5.784;2023-11-19T07:09:13;20.80;;;3.60;;
80625;SDS011;69982;51.758;5.784;2023-11-19T07:11:54;21.20;;;3.50;;
80625;SDS011;69982;51.758;5.784;2023-11-19T07:14:23;24.40;;;2.50;;
80625;SDS011;69982;51.758;5.784;2023-11-19T07:17:14;19.70;;;2.90;;
80625;SDS011;69982;51.758;5.784;2023-11-19T07:19:43;21.30;;;2.70;;
80625;SDS011;69982;51.758;5.784;2023-11-19T07:22:18;23.70;;;3.30;;
80625;SDS011;69982;51.758;5.784;2023-11-19T07:24:48;24.20;;;4.30;;
80625;SDS011;69982;51.758;5.784;2023-11-19T07:27:31;22.60;;;3.10;;
80625;SDS011;69982;51.758;5.784;2023-11-19T07:30:01;28.00;;;3.60;;
80625;SDS011;69982;51.758;5.784;2023-11-19T07:32:37;27.10;;;3.00;;
80625;SDS011;69982;51.758;5.784;2023-11-19T07:35:17;21.40;;;4.00;;
80625;SDS011;69982;51.758;5.784;2023-11-19T07:38:25;27.10;;;3.10;;
80625;SDS011;69982;51.758;5.784;2023-11-19T07:41:02;21.90;;;3.70;;
80625;SDS011;69982;51.758;5.784;2023-11-19T07:43:32;19.80;;;2.30;;
80625;SDS011;69982;51.758;5.784;2023-11-19T07:46:19;28.10;;;3.20;;
80625;SDS011;69982;51.758;5.784;2023-11-19T07:49:13;25.30;;;2.90;;
80625;SDS011;69982;51.758;5.784;2023-11-19T07:51:42;22.90;;;3.00;;
80625;SDS011;69982;51.758;5.784;2023-11-19T07:54:30;21.50;;;3.20;;
80625;SDS011;69982;51.758;5.784;2023-11-19T07:57:22;28.20;;;3.40;;
80625;SDS011;69982;51.758;5.784;2023-11-19T07:59:54;22.60;;;3.30;;
80625;SDS011;69982;51.758;5.784;2023-11-19T08:02:31;25.30;;;3.30;;
80625;SDS011;69982;51.758;5.784;2023-11-19T08:04:58;25.70;;;3.20;;
80625;SDS011;69982;51.758;5.784;2023-11-19T08:07:59;27.50;;;3.70;;
80625;SDS011;69982;51.758;5.784;2023-11-19T08:10:32;19.90;;;2.70;;
80625;SDS011;69982;51.758;5.784;2023-11-19T08:13:02;19.50;;;2.20;;
80625;SDS011;69982;51.758;5.784;2023-11-19T08:15:58;19.00;;;4.00;;
80625;SDS011;69982;51.758;5.784;2023-11-19T08:18:29;29.50;;;3.20;;
80625;SDS011;69982;51.758;5.784;2023-11-19T08:21:36;18.00;;;3.10;;
80625;SDS011;69982;51.758;5.784;2023-11-19T08:24:09;28.70;;;3.20;;
80625;SDS011;69982;51.758;5.784;2023-11-19T08:26:40;26.00;;;2.20;;
80625;SDS011;69982;51.758;5.784;2023-11-19T08:29:08;25.40;;;3.70;;
80625;SDS011;69982;51.758;5.784;2023-11-19T08:31:56;23.60;;;3.10;;
80625;SDS011;69982;51.758;5.784;2023-11-19T08:34:28;25.70;;;3.60;;
80625;SDS011;69982;51.758;5.784;2023-11-19T08:37:16;23.90;;;3.20;;
80625;SDS011;69982;51.758;5.784;2023-11-19T08:39:50;25.20;;;3.40;;
80625;SDS011;69982;51.758;5.784;2023-11-19T08:45:11;19.40;;;4.00;;
80625;SDS011;69982;51.758;5.784;2023-11-19T08:47:41;24.90;;;2.90;;
80625;SDS011;69982;51.758;5.784;2023-11-19T08:50:12;25.90;;;3.10;;
80625;SDS011;69982;51.758;5.784;2023-11-19T08:52:44;28.40;;;4.00;;
80625;SDS011;69982;51.758;5.784;2023-11-19T08:55:27;25.00;;;3.10;;
80625;SDS011;69982;51.758;5.784;2023-11-19T08:58:05;16.50;;;2.60;;
80625;SDS011;69982;51.758;5.784;2023-11-19T09:00:57;19.60;;;3.20;;
80625;SDS011;69982;51.758;5.784;2023-11-19T09:03:31;28.50;;;3.30;;
80625;SDS011;69982;51.758;5.784;2023-11-19T09:06:02;26.10;;;3.50;;
80625;SDS011;69982;51.758;5.784;2023-11-19T09:08:39;28.90;;;4.20;;
80625;SDS011;69982;51.758;5.784;2023-11-19T09:11:10;19.50;;;3.80;;
80625;SDS011;69982;51.758;5.784;2023-11-19T09:13:58;28.00;;;2.90;;
80625;SDS011;69982;51.758;5.784;2023-11-19T09:16:29;24.90;;;3.90;;
80625;SDS011;69982;51.758;5.784;2023-11-19T09:21:56;26.80;;;3.40;;
80625;SDS011;69982;51.758;5.784;2023-11-19T09:24:34;25.30;;;3.10;;
80625;SDS011;69982;51.758;5.784;2023-11-19T09:27:06;24.50;;;3.30;;
80625;SDS011;69982;51.758;5.784;2023-11-19T09:29:42;16.50;;;3.00;;
80625;SDS011;69982;51.758;5.784;2023-11-19T09:32:19;19.00;;;2.80;;
80625;SDS011;69982;51.758;5.784;2023-11-19T09:34:50;28.20;;;3.60;;
80625;SDS011;69982;51.758;5.784;2023-11-19T09:37:34;24.60;;;3.30;;
80625;SDS011;69982;51.758;5.784;2023-11-19T09:40:12;19.80;;;3.00;;
80625;SDS011;69982;51.758;5.784;2023-11-19T09:42:52;25.80;;;3.20;;
80625;SDS011;69982;51.758;5.784;2023-11-19T09:45:30;23.70;;;3.80;;
80625;SDS011;69982;51.758;5.784;2023-11-19T09:48:11;17.50;;;2.80;;
80625;SDS011;69982;51.758;5.784;2023-11-19T09:50:54;28.50;;;3.70;;
80625;SDS011;69982;51.758;5.784;2023-11-19T09:53:29;26.30;;;4.40;;
80625;SDS011;69982;51.758;5.784;2023-11-19T09:56:04;21.60;;;3.30;;
80625;SDS011;69982;51.758;5.784;2023-11-19T09:58:40;19.00;;;2.20;;
80625;SDS011;69982;51.758;5.784;2023-11-19T10:01:12;27.20;;;4.00;;
80625;SDS011;69982;51.758;5.784;2023-11-19T10:03:52;46.90;;;22.20;;
80625;SDS011;69982;51.758;5.784;2023-11-19T10:06:32;22.40;;;3.70;;
80625;SDS011;69982;51.758;5.784;2023-11-19T10:09:12;32.50;;;5.10;;
80625;SDS011;69982;51.758;5.784;2023-11-19T10:11:45;30.30;;;5.10;;
80625;SDS011;69982;51.758;5.784;2023-11-19T10:14:16;23.10;;;3.40;;
80625;SDS011;69982;51.758;5.784;2023-11-19T10:16:51;25.50;;;6.70;;
80625;SDS011;69982;51.758;5.784;2023-11-19T10:19:21;25.30;;;3.50;;
80625;SDS011;69982;51.758;5.784;2023-11-19T10:21:53;18.00;;;4.00;;
80625;SDS011;69982;51.758;5.784;2023-11-19T10:24:31;29.20;;;8.20;;
80625;SDS011;69982;51.758;5.784;2023-11-19T10:27:12;21.20;;;2.60;;
80625;SDS011;69982;51.758;5.784;2023-11-19T10:32:14;21.10;;;2.60;;
80625;SDS011;69982;51.758;5.784;2023-11-19T10:34:43;23.20;;;3.20;;
80625;SDS011;69982;51.758;5.784;2023-11-19T10:37:30;24.80;;;3.70;;
80625;SDS011;69982;51.758;5.784;2023-11-19T10:40:15;25.50;;;3.30;;
80625;SDS011;69982;51.758;5.784;2023-11-19T10:45:31;22.40;;;2.90;;
80625;SDS011;69982;51.758;5.784;2023-11-19T10:48:10;25.40;;;2.70;;
80625;SDS011;69982;51.758;5.784;2023-11-19T10:50:40;19.30;;;2.30;;
80625;SDS011;69982;51.758;5.784;2023-11-19T10:53:27;15.90;;;2.80;;
80625;SDS011;69982;51.758;5.784;2023-11-19T10:56:14;25.90;;;3.20;;
80625;SDS011;69982;51.758;5.784;2023-11-19T10:58:54;27.30;;;3.00;;
80625;SDS011;69982;51.758;5.784;2023-11-19T11:01:34;22.10;;;3.80;;
80625;SDS011;69982;51.758;5.784;2023-11-19T11:04:13;24.70;;;3.40;;
80625;SDS011;69982;51.758;5.784;2023-11-19T11:07:06;18.40;;;2.90;;
80625;SDS011;69982;51.758;5.784;2023-11-19T11:09:47;21.10;;;2.60;;
80625;SDS011;69982;51.758;5.784;2023-11-19T11:12:17;14.40;;;2.40;;
80625;SDS011;69982;51.758;5.784;2023-11-19T11:15:11;30.50;;;3.60;;
80625;SDS011;69982;51.758;5.784;2023-11-19T11:17:44;18.80;;;2.70;;
80625;SDS011;69982;51.758;5.784;2023-11-19T11:20:25;21.30;;;2.90;;
80625;SDS011;69982;51.758;5.784;2023-11-19T11:28:56;23.80;;;2.90;;
80625;SDS011;69982;51.758;5.784;2023-11-19T11:40:04;21.80;;;3.10;;
80625;SDS011;69982;51.758;5.784;2023-11-19T11:42:57;26.30;;;3.40;;
80625;SDS011;69982;51.758;5.784;2023-11-19T11:45:36;20.40;;;2.90;;
80625;SDS011;69982;51.758;5.784;2023-11-19T11:48:17;36.30;;;4.10;;
80625;SDS011;69982;51.758;5.784;2023-11-19T11:51:00;21.60;;;2.70;;
80625;SDS011;69982;51.758;5.784;2023-11-19T11:53:48;16.40;;;2.60;;
80625;SDS011;69982;51.758;5.784;2023-11-19T11:56:18;12.40;;;2.00;;
80625;SDS011;69982;51.758;5.784;2023-11-19T11:58:53;21.80;;;3.50;;
80625;SDS011;69982;51.758;5.784;2023-11-19T12:03:55;30.40;;;3.20;;
80625;SDS011;69982;51.758;5.784;2023-11-19T12:07:07;20.80;;;2.80;;
80625;SDS011;69982;51.758;5.784;2023-11-19T12:13:01;21.10;;;2.80;;
80625;SDS011;69982;51.758;5.784;2023-11-19T12:15:30;15.30;;;2.50;;
80625;SDS011;69982;51.758;5.784;2023-11-19T12:18:04;15.70;;;2.10;;
80625;SDS011;69982;51.758;5.784;2023-11-19T12:20:40;20.10;;;2.50;;
80625;SDS011;69982;51.758;5.784;2023-11-19T12:23:11;22.60;;;2.60;;
80625;SDS011;69982;51.758;5.784;2023-11-19T12:25:50;18.70;;;2.50;;
80625;SDS011;69982;51.758;5.784;2023-11-19T12:28:30;12.60;;;2.50;;
80625;SDS011;69982;51.758;5.784;2023-11-19T12:31:08;12.20;;;1.80;;
80625;SDS011;69982;51.758;5.784;2023-11-19T12:33:56;21.60;;;2.50;;
80625;SDS011;69982;51.758;5.784;2023-11-19T12:36:28;19.60;;;2.10;;
80625;SDS011;69982;51.758;5.784;2023-11-19T12:39:13;13.90;;;2.10;;
80625;SDS011;69982;51.758;5.784;2023-11-19T12:41:49;12.20;;;2.20;;
80625;SDS011;69982;51.758;5.784;2023-11-19T12:44:17;15.40;;;2.80;;
80625;SDS011;69982;51.758;5.784;2023-11-19T12:47:01;13.90;;;2.30;;
80625;SDS011;69982;51.758;5.784;2023-11-19T12:52:31;22.70;;;2.60;;
80625;SDS011;69982;51.758;5.784;2023-11-19T12:54:57;18.10;;;2.90;;
80625;SDS011;69982;51.758;5.784;2023-11-19T12:57:39;22.70;;;2.40;;
80625;SDS011;69982;51.758;5.784;2023-11-19T13:02:46;13.00;;;2.00;;
80625;SDS011;69982;51.758;5.784;2023-11-19T13:05:34;18.10;;;2.70;;
80625;SDS011;69982;51.758;5.784;2023-11-19T13:08:07;17.40;;;3.10;;
80625;SDS011;69982;51.758;5.784;2023-11-19T13:16:29;16.80;;;2.50;;
80625;SDS011;69982;51.758;5.784;2023-11-19T13:18:55;20.60;;;2.60;;
80625;SDS011;69982;51.758;5.784;2023-11-19T13:21:29;18.10;;;2.60;;
80625;SDS011;69982;51.758;5.784;2023-11-19T13:23:59;12.40;;;2.50;;
80625;SDS011;69982;51.758;5.784;2023-11-19T13:26:32;17.80;;;2.80;;
80625;SDS011;69982;51.758;5.784;2023-11-19T13:28:59;19.80;;;2.60;;
80625;SDS011;69982;51.758;5.784;2023-11-19T13:31:26;17.60;;;2.80;;
80625;SDS011;69982;51.758;5.784;2023-11-19T13:33:52;17.60;;;2.30;;
80625;SDS011;69982;51.758;5.784;2023-11-19T13:36:26;17.60;;;2.20;;
80625;SDS011;69982;51.758;5.784;2023-11-19T13:38:59;16.40;;;3.20;;
80625;SDS011;69982;51.758;5.784;2023-11-19T13:41:30;11.50;;;2.10;;
80625;SDS011;69982;51.758;5.784;2023-11-19T13:44:02;10.40;;;1.60;;
80625;SDS011;69982;51.758;5.784;2023-11-19T13:46:34;21.70;;;2.60;;
80625;SDS011;69982;51.758;5.784;2023-11-19T13:49:07;20.10;;;2.60;;
80625;SDS011;69982;51.758;5.784;2023-11-19T13:51:36;19.30;;;2.80;;
80625;SDS011;69982;51.758;5.784;2023-11-19T13:54:08;17.60;;;2.60;;
80625;SDS011;69982;51.758;5.784;2023-11-19T13:56:42;14.10;;;2.10;;
80625;SDS011;69982;51.758;5.784;2023-11-19T13:59:12;18.00;;;2.40;;
80625;SDS011;69982;51.758;5.784;2023-11-19T14:01:52;20.20;;;2.30;;
80625;SDS011;69982;51.758;5.784;2023-11-19T14:04:22;17.00;;;2.20;;
80625;SDS011;69982;51.758;5.784;2023-11-19T14:06:53;14.80;;;1.80;;
80625;SDS011;69982;51.758;5.784;2023-11-19T14:09:24;18.40;;;2.00;;
80625;SDS011;69982;51.758;5.784;2023-11-19T14:12:08;20.30;;;2.70;;
80625;SDS011;69982;51.758;5.784;2023-11-19T14:14:47;10.20;;;2.10;;
80625;SDS011;69982;51.758;5.784;2023-11-19T14:17:14;19.70;;;2.90;;
80625;SDS011;69982;51.758;5.784;2023-11-19T14:19:51;14.80;;;1.70;;
80625;SDS011;69982;51.758;5.784;2023-11-19T14:22:31;15.20;;;2.70;;
80625;SDS011;69982;51.758;5.784;2023-11-19T14:25:04;11.70;;;2.10;;
80625;SDS011;69982;51.758;5.784;2023-11-19T14:27:33;15.90;;;2.30;;
80625;SDS011;69982;51.758;5.784;2023-11-19T14:30:05;13.10;;;2.10;;
80625;SDS011;69982;51.758;5.784;2023-11-19T14:32:51;14.60;;;2.60;;
80625;SDS011;69982;51.758;5.784;2023-11-19T14:37:51;15.60;;;2.60;;
80625;SDS011;69982;51.758;5.784;2023-11-19T14:40:39;13.10;;;2.10;;
80625;SDS011;69982;51.758;5.784;2023-11-19T14:43:12;16.00;;;2.40;;
80625;SDS011;69982;51.758;5.784;2023-11-19T14:45:48;12.70;;;2.10;;
80625;SDS011;69982;51.758;5.784;2023-11-19T14:48:33;15.50;;;2.50;;
80625;SDS011;69982;51.758;5.784;2023-11-19T14:51:14;15.10;;;2.60;;
80625;SDS011;69982;51.758;5.784;2023-11-19T14:53:58;13.40;;;1.90;;
80625;SDS011;69982;51.758;5.784;2023-11-19T14:56:36;13.90;;;1.70;;
80625;SDS011;69982;51.758;5.784;2023-11-19T14:59:23;14.00;;;3.00;;
80625;SDS011;69982;51.758;5.784;2023-11-19T15:02:10;13.70;;;2.10;;
80625;SDS011;69982;51.758;5.784;2023-11-19T15:04:47;12.50;;;1.80;;
80625;SDS011;69982;51.758;5.784;2023-11-19T15:07:19;16.70;;;2.00;;
80625;SDS011;69982;51.758;5.784;2023-11-19T15:09:51;16.30;;;2.00;;
80625;SDS011;69982;51.758;5.784;2023-11-19T15:12:19;9.50;;;1.70;;
80625;SDS011;69982;51.758;5.784;2023-11-19T15:14:55;10.80;;;1.70;;
80625;SDS011;69982;51.758;5.784;2023-11-19T15:17:27;12.00;;;2.20;;
80625;SDS011;69982;51.758;5.784;2023-11-19T15:19:55;15.90;;;2.00;;
80625;SDS011;69982;51.758;5.784;2023-11-19T15:22:27;15.50;;;2.30;;
80625;SDS011;69982;51.758;5.784;2023-11-19T15:25:16;13.80;;;2.20;;
80625;SDS011;69982;51.758;5.784;2023-11-19T15:30:50;12.50;;;1.70;;
80625;SDS011;69982;51.758;5.784;2023-11-19T15:33:29;9.00;;;1.70;;
80625;SDS011;69982;51.758;5.784;2023-11-19T15:36:07;13.70;;;1.80;;
80625;SDS011;69982;51.758;5.784;2023-11-19T15:38:38;19.10;;;2.70;;
80625;SDS011;69982;51.758;5.784;2023-11-19T15:41:29;15.80;;;2.40;;
80625;SDS011;69982;51.758;5.784;2023-11-19T15:47:14;10.90;;;2.10;;
80625;SDS011;69982;51.758;5.784;2023-11-19T15:49:46;9.70;;;1.40;;
80625;SDS011;69982;51.758;5.784;2023-11-19T15:52:21;14.80;;;2.20;;
80625;SDS011;69982;51.758;5.784;2023-11-19T15:54:56;12.70;;;2.10;;
80625;SDS011;69982;51.758;5.784;2023-11-19T15:57:33;15.50;;;2.80;;
80625;SDS011;69982;51.758;5.784;2023-11-19T16:00:05;16.50;;;2.60;;
80625;SDS011;69982;51.758;5.784;2023-11-19T16:02:56;13.70;;;2.00;;
80625;SDS011;69982;51.758;5.784;2023-11-19T16:05:40;15.10;;;1.90;;
80625;SDS011;69982;51.758;5.784;2023-11-19T16:08:09;14.00;;;2.40;;
80625;SDS011;69982;51.758;5.784;2023-11-19T16:10:46;12.90;;;1.60;;
80625;SDS011;69982;51.758;5.784;2023-11-19T16:13:35;15.50;;;2.30;;
80625;SDS011;69982;51.758;5.784;2023-11-19T16:16:07;16.60;;;2.30;;
80625;SDS011;69982;51.758;5.784;2023-11-19T16:18:41;14.50;;;1.80;;
80625;SDS011;69982;51.758;5.784;2023-11-19T16:21:14;11.40;;;1.90;;
80625;SDS011;69982;51.758;5.784;2023-11-19T16:23:55;11.90;;;2.00;;
80625;SDS011;69982;51.758;5.784;2023-11-19T16:26:28;14.30;;;2.40;;
80625;SDS011;69982;51.758;5.784;2023-11-19T16:29:06;17.90;;;2.30;;
80625;SDS011;69982;51.758;5.784;2023-11-19T16:31:45;15.90;;;2.10;;
80625;SDS011;69982;51.758;5.784;2023-11-19T16:37:15;8.80;;;2.10;;
80625;SDS011;69982;51.758;5.784;2023-11-19T16:39:52;12.10;;;2.70;;